createdAt,value
2018-09-29T00:02:02.178Z,3.10
2018-09-29T00:04:31.531Z,2.43
2018-09-29T00:07:01.051Z,2.30
2018-09-29T00:09:30.285Z,2.33
2018-09-29T00:12:00.194Z,2.60
2018-09-29T00:14:31.040Z,2.43
2018-09-29T00:17:00.276Z,2.80
2018-09-29T00:19:29.532Z,2.43
2018-09-29T00:22:00.082Z,2.90
2018-09-29T00:24:29.545Z,2.27
2018-09-29T00:26:58.985Z,2.50
2018-09-29T00:29:28.224Z,2.23
2018-09-29T00:31:57.615Z,2.43
2018-09-29T00:34:26.824Z,2.33
2018-09-29T00:36:56.076Z,2.47
2018-09-29T00:39:25.304Z,2.50
2018-09-29T00:41:54.504Z,2.53
2018-09-29T00:44:23.704Z,2.20
2018-09-29T00:46:52.941Z,2.50
2018-09-29T00:49:22.364Z,2.57
2018-09-29T00:51:51.651Z,2.60
2018-09-29T00:54:20.960Z,2.67
2018-09-29T00:56:50.392Z,2.30
2018-09-29T00:59:19.702Z,2.83
2018-09-29T01:01:50.251Z,2.43
2018-09-29T01:04:20.044Z,2.63
2018-09-29T01:06:49.244Z,2.80
2018-09-29T01:09:18.436Z,2.77
2018-09-29T01:11:47.712Z,2.70
2018-09-29T01:14:16.957Z,2.50
2018-09-29T01:16:48.259Z,2.63
2018-09-29T01:19:17.488Z,2.73
2018-09-29T01:21:46.772Z,2.70
2018-09-29T01:24:16.172Z,2.60
2018-09-29T01:26:45.471Z,2.77
2018-09-29T01:29:14.655Z,2.50
2018-09-29T01:31:43.859Z,2.80
2018-09-29T01:34:13.915Z,2.90
2018-09-29T01:36:43.108Z,2.77
2018-09-29T01:39:13.090Z,2.70
2018-09-29T01:41:42.323Z,2.80
2018-09-29T01:44:11.708Z,2.77
2018-09-29T01:46:41.020Z,2.47
2018-09-29T01:49:10.408Z,3.00
2018-09-29T01:51:39.628Z,2.47
2018-09-29T01:54:08.883Z,3.40
2018-09-29T01:56:38.264Z,2.97
2018-09-29T01:59:07.799Z,2.57
2018-09-29T02:01:37.104Z,2.80
2018-09-29T02:04:06.328Z,2.30
2018-09-29T02:06:35.564Z,3.57
2018-09-29T02:09:05.792Z,2.37
2018-09-29T02:11:34.968Z,2.77
2018-09-29T02:14:04.479Z,2.87
2018-09-29T02:16:34.092Z,2.80
2018-09-29T02:19:03.448Z,3.07
2018-09-29T02:21:32.643Z,2.67
2018-09-29T02:24:01.931Z,2.63
2018-09-29T02:26:31.775Z,2.83
2018-09-29T02:29:01.077Z,3.53
2018-09-29T02:31:31.103Z,2.70
2018-09-29T02:34:00.441Z,2.63
2018-09-29T02:36:29.736Z,2.80
2018-09-29T02:38:58.915Z,2.70
2018-09-29T02:41:28.159Z,3.07
2018-09-29T02:43:57.342Z,3.10
2018-09-29T02:46:26.582Z,3.00
2018-09-29T02:48:55.868Z,3.50
2018-09-29T02:51:25.395Z,3.20
2018-09-29T02:53:54.599Z,2.90
2018-09-29T02:56:23.839Z,3.33
2018-09-29T02:58:53.025Z,3.27
2018-09-29T03:01:22.250Z,3.63
2018-09-29T03:03:51.576Z,3.80
2018-09-29T03:06:21.004Z,3.20
2018-09-29T03:08:50.912Z,3.60
2018-09-29T03:11:20.280Z,3.40
2018-09-29T03:13:50.228Z,3.60
2018-09-29T03:16:19.824Z,3.60
2018-09-29T03:18:49.039Z,3.23
2018-09-29T03:21:18.429Z,3.27
2018-09-29T03:23:47.616Z,2.93
2018-09-29T03:26:16.913Z,2.90
2018-09-29T03:28:46.891Z,3.20
2018-09-29T03:31:16.245Z,2.93
2018-09-29T03:33:45.458Z,3.20
2018-09-29T03:36:14.695Z,2.90
2018-09-29T03:38:44.018Z,3.20
2018-09-29T03:41:13.963Z,2.90
2018-09-29T03:43:43.181Z,2.47
2018-09-29T03:46:12.445Z,3.13
2018-09-29T03:48:42.436Z,3.07
2018-09-29T03:51:11.675Z,2.73
2018-09-29T03:53:41.066Z,2.83
2018-09-29T03:56:10.359Z,3.27
2018-09-29T03:58:39.566Z,3.00
2018-09-29T04:01:08.852Z,2.80
2018-09-29T04:03:38.093Z,2.90
2018-09-29T04:06:07.315Z,2.77
2018-09-29T04:08:36.642Z,2.90
2018-09-29T04:11:06.856Z,2.70
2018-09-29T04:13:36.930Z,2.87
2018-09-29T04:16:06.389Z,2.77
2018-09-29T04:18:35.607Z,2.70
2018-09-29T04:21:04.836Z,2.93
2018-09-29T04:23:34.099Z,2.67
2018-09-29T04:26:03.474Z,2.50
2018-09-29T04:28:32.782Z,2.90
2018-09-29T04:31:02.012Z,2.80
2018-09-29T04:33:31.303Z,2.57
2018-09-29T04:36:00.518Z,2.70
2018-09-29T04:38:30.020Z,2.20
2018-09-29T04:41:00.660Z,2.90
2018-09-29T04:43:29.939Z,2.73
2018-09-29T04:45:59.368Z,2.73
2018-09-29T04:48:28.735Z,2.20
2018-09-29T04:50:58.183Z,2.00
2018-09-29T04:53:27.369Z,2.50
2018-09-29T04:55:57.529Z,2.60
2018-09-29T04:58:26.768Z,2.40
2018-09-29T05:00:56.029Z,2.47
2018-09-29T05:03:25.273Z,2.30
2018-09-29T05:05:54.488Z,2.43
2018-09-29T05:08:23.673Z,2.37
2018-09-29T05:10:52.899Z,2.63
2018-09-29T05:13:22.144Z,2.30
2018-09-29T05:15:51.355Z,2.10
2018-09-29T05:18:20.583Z,2.47
2018-09-29T05:20:49.783Z,2.07
2018-09-29T05:23:19.077Z,2.17
2018-09-29T05:25:48.258Z,2.50
2018-09-29T05:28:17.615Z,2.33
2018-09-29T05:30:47.022Z,2.60
2018-09-29T05:33:16.240Z,2.90
2018-09-29T05:35:45.661Z,2.30
2018-09-29T05:38:14.948Z,2.70
2018-09-29T05:40:44.179Z,2.63
2018-09-29T05:43:13.480Z,4.00
2018-09-29T05:45:42.672Z,2.70
2018-09-29T05:48:11.941Z,2.80
2018-09-29T05:50:41.377Z,2.83
2018-09-29T05:53:10.599Z,2.57
2018-09-29T05:55:39.851Z,2.53
2018-09-29T05:58:09.070Z,2.63
2018-09-29T06:00:38.407Z,2.47
2018-09-29T06:03:08.337Z,2.50
2018-09-29T06:05:38.405Z,2.23
2018-09-29T06:08:07.627Z,2.60
2018-09-29T06:10:36.833Z,2.40
2018-09-29T06:13:06.888Z,2.43
2018-09-29T06:15:36.244Z,2.37
2018-09-29T06:18:05.688Z,2.07
2018-09-29T06:20:39.298Z,2.20
2018-09-29T06:23:08.789Z,2.13
2018-09-29T06:25:37.973Z,2.20
2018-09-29T06:28:07.204Z,2.13
2018-09-29T06:30:36.416Z,2.43
2018-09-29T06:33:05.633Z,2.50
2018-09-29T06:35:34.848Z,2.30
2018-09-29T06:38:04.838Z,2.43
2018-09-29T06:40:34.290Z,2.20
2018-09-29T06:43:03.491Z,2.37
2018-09-29T06:45:32.725Z,2.20
2018-09-29T06:48:02.104Z,2.23
2018-09-29T06:50:31.436Z,2.40
2018-09-29T06:53:00.715Z,1.70
2018-09-29T06:55:30.147Z,2.07
2018-09-29T06:57:59.442Z,2.20
2018-09-29T07:00:28.884Z,2.10
2018-09-29T07:02:59.309Z,2.20
2018-09-29T07:05:28.577Z,2.40
2018-09-29T07:07:58.603Z,2.37
2018-09-29T07:10:27.839Z,2.23
2018-09-29T07:12:57.133Z,2.37
2018-09-29T07:15:26.350Z,2.00
2018-09-29T07:17:55.589Z,1.97
2018-09-29T07:20:25.004Z,2.27
2018-09-29T07:22:54.343Z,2.10
2018-09-29T07:25:23.574Z,1.93
2018-09-29T07:27:53.004Z,2.40
2018-09-29T07:30:22.498Z,1.87
2018-09-29T07:32:52.413Z,2.67
2018-09-29T07:35:21.704Z,2.43
2018-09-29T07:37:51.683Z,2.00
2018-09-29T07:40:20.987Z,2.10
2018-09-29T07:42:50.415Z,1.93
2018-09-29T07:45:19.669Z,2.40
2018-09-29T07:47:48.954Z,2.00
2018-09-29T07:50:18.384Z,1.67
2018-09-29T07:52:47.662Z,1.70
2018-09-29T07:55:16.996Z,1.73
2018-09-29T07:57:46.431Z,1.83
2018-09-29T08:00:15.977Z,1.37
2018-09-29T08:02:45.212Z,1.70
2018-09-29T08:05:14.967Z,1.50
2018-09-29T08:07:44.231Z,1.20
2018-09-29T08:10:13.467Z,1.40
2018-09-29T08:12:42.747Z,1.50
2018-09-29T08:15:11.996Z,1.83
2018-09-29T08:17:41.357Z,1.77
2018-09-29T08:20:10.672Z,1.67
2018-09-29T08:22:39.893Z,1.50
2018-09-29T08:25:09.988Z,1.40
2018-09-29T08:27:39.400Z,1.10
2018-09-29T08:30:09.366Z,1.80
2018-09-29T08:32:38.734Z,1.60
2018-09-29T08:35:07.967Z,1.40
2018-09-29T08:37:37.510Z,1.80
2018-09-29T08:40:07.303Z,1.30
2018-09-29T08:42:36.557Z,1.10
2018-09-29T08:45:05.896Z,1.37
2018-09-29T08:47:35.132Z,1.50
2018-09-29T08:50:05.153Z,1.40
2018-09-29T08:52:34.368Z,1.27
2018-09-29T08:55:03.704Z,1.53
2018-09-29T08:57:33.428Z,1.50
2018-09-29T09:00:02.848Z,2.07
2018-09-29T09:02:32.061Z,1.50
2018-09-29T09:05:01.296Z,1.30
2018-09-29T09:07:30.552Z,1.30
2018-09-29T09:09:59.789Z,1.30
2018-09-29T09:12:29.439Z,1.23
2018-09-29T09:14:58.664Z,1.20
2018-09-29T09:17:28.788Z,1.10
2018-09-29T09:19:58.229Z,0.97
2018-09-29T09:22:27.588Z,1.40
2018-09-29T09:24:56.861Z,0.90
2018-09-29T09:27:26.343Z,1.23
2018-09-29T09:29:56.291Z,0.90
2018-09-29T09:32:26.499Z,1.40
2018-09-29T09:34:55.727Z,1.07
2018-09-29T09:37:25.061Z,1.10
2018-09-29T09:39:54.341Z,1.20
2018-09-29T09:42:23.575Z,1.23
2018-09-29T09:44:52.809Z,1.17
2018-09-29T09:47:22.147Z,1.23
2018-09-29T09:49:51.407Z,1.23
2018-09-29T09:52:20.808Z,1.50
2018-09-29T09:54:50.258Z,1.17
2018-09-29T09:57:19.754Z,1.13
2018-09-29T09:59:49.822Z,0.87
2018-09-29T10:02:24.376Z,1.20
2018-09-29T10:04:53.612Z,0.93
2018-09-29T10:07:22.898Z,1.10
2018-09-29T10:09:52.752Z,1.00
2018-09-29T10:12:21.976Z,1.10
2018-09-29T10:14:51.201Z,1.23
2018-09-29T10:17:21.384Z,1.10
2018-09-29T10:19:50.621Z,1.07
2018-09-29T10:22:19.832Z,1.03
2018-09-29T10:24:49.098Z,0.90
2018-09-29T10:27:18.435Z,1.47
2018-09-29T10:29:47.672Z,1.30
2018-09-29T10:32:16.941Z,1.07
2018-09-29T10:34:46.228Z,1.40
2018-09-29T10:37:15.520Z,1.10
2018-09-29T10:39:45.335Z,1.00
2018-09-29T10:42:14.588Z,0.93
2018-09-29T10:44:43.812Z,1.00
2018-09-29T10:47:13.079Z,0.90
2018-09-29T10:49:42.838Z,1.03
2018-09-29T10:52:12.195Z,1.13
2018-09-29T10:54:41.425Z,1.20
2018-09-29T10:57:10.764Z,1.30
2018-09-29T10:59:39.968Z,1.10
2018-09-29T11:02:09.268Z,1.30
2018-09-29T11:04:39.122Z,1.20
2018-09-29T11:07:09.295Z,0.87
2018-09-29T11:09:38.600Z,1.07
2018-09-29T11:12:07.831Z,1.20
2018-09-29T11:14:37.603Z,0.90
2018-09-29T11:17:07.667Z,1.13
2018-09-29T11:19:36.916Z,1.00
2018-09-29T11:22:06.389Z,1.10
2018-09-29T11:24:35.596Z,1.20
2018-09-29T11:27:05.635Z,1.00
2018-09-29T11:29:35.027Z,1.10
2018-09-29T11:32:04.235Z,0.90
2018-09-29T11:34:33.760Z,1.33
2018-09-29T11:37:02.989Z,1.00
2018-09-29T11:39:32.831Z,1.50
2018-09-29T11:42:02.745Z,1.00
2018-09-29T11:44:32.635Z,1.00
2018-09-29T11:47:02.006Z,0.70
2018-09-29T11:49:32.527Z,0.80
2018-09-29T11:52:02.546Z,1.17
2018-09-29T11:54:31.773Z,1.30
2018-09-29T11:57:01.026Z,1.17
2018-09-29T11:59:30.810Z,1.10
2018-09-29T12:02:00.950Z,0.73
2018-09-29T12:04:30.724Z,1.00
2018-09-29T12:07:00.152Z,0.90
2018-09-29T12:09:29.737Z,1.17
2018-09-29T12:11:59.218Z,0.93
2018-09-29T12:14:28.504Z,0.90
2018-09-29T12:16:57.978Z,0.80
2018-09-29T12:19:27.204Z,0.60
2018-09-29T12:21:56.412Z,0.80
2018-09-29T12:24:25.640Z,0.97
2018-09-29T12:26:55.910Z,1.00
2018-09-29T12:29:25.170Z,0.90
2018-09-29T12:31:54.352Z,1.03
2018-09-29T12:34:23.612Z,1.07
2018-09-29T12:36:53.663Z,0.53
2018-09-29T12:39:22.805Z,0.97
2018-09-29T12:41:52.032Z,0.93
2018-09-29T12:44:21.309Z,0.87
2018-09-29T12:46:50.613Z,1.30
2018-09-29T12:49:19.852Z,1.00
2018-09-29T12:51:49.843Z,0.90
2018-09-29T12:54:19.028Z,0.73
2018-09-29T12:56:48.233Z,0.90
2018-09-29T12:59:17.480Z,1.00
2018-09-29T13:01:46.781Z,1.20
2018-09-29T13:04:16.053Z,1.00
2018-09-29T13:06:46.495Z,1.00
2018-09-29T13:09:16.423Z,0.70
2018-09-29T13:11:45.620Z,1.23
2018-09-29T13:14:14.909Z,1.10
2018-09-29T13:16:44.902Z,1.03
2018-09-29T13:19:14.077Z,1.10
2018-09-29T13:21:43.352Z,1.10
2018-09-29T13:24:12.625Z,1.17
2018-09-29T13:26:41.923Z,0.97
2018-09-29T13:29:11.845Z,0.83
2018-09-29T13:31:41.186Z,1.07
2018-09-29T13:34:10.614Z,1.00
2018-09-29T13:36:40.492Z,0.90
2018-09-29T13:39:10.048Z,1.00
2018-09-29T13:41:39.358Z,1.10
2018-09-29T13:44:08.579Z,0.80
2018-09-29T13:46:37.793Z,1.00
2018-09-29T13:49:07.040Z,0.80
2018-09-29T13:51:36.244Z,1.10
2018-09-29T13:54:06.205Z,1.00
2018-09-29T13:56:35.480Z,1.27
2018-09-29T13:59:04.691Z,1.20
2018-09-29T14:01:34.813Z,1.43
2018-09-29T14:04:04.023Z,1.10
2018-09-29T14:06:33.545Z,1.67
2018-09-29T14:09:02.877Z,1.13
2018-09-29T14:11:32.084Z,1.13
2018-09-29T14:14:01.413Z,1.20
2018-09-29T14:16:30.840Z,1.47
2018-09-29T14:19:00.309Z,1.30
2018-09-29T14:21:30.369Z,1.10
2018-09-29T14:23:59.687Z,1.07
2018-09-29T14:26:29.089Z,1.20
2018-09-29T14:28:58.272Z,1.00
2018-09-29T14:31:27.691Z,1.00
2018-09-29T14:33:57.813Z,1.30
2018-09-29T14:36:27.032Z,1.10
2018-09-29T14:38:56.382Z,1.10
2018-09-29T14:41:26.352Z,1.00
2018-09-29T14:43:55.675Z,1.27
2018-09-29T14:46:25.781Z,1.33
2018-09-29T14:48:55.140Z,1.90
2018-09-29T14:51:24.337Z,1.57
2018-09-29T14:53:53.692Z,1.10
2018-09-29T14:56:23.061Z,0.60
2018-09-29T14:58:52.312Z,0.90
2018-09-29T15:01:21.524Z,1.53
2018-09-29T15:03:50.811Z,1.27
2018-09-29T15:06:20.028Z,1.30
2018-09-29T15:08:49.321Z,1.30
2018-09-29T15:11:19.588Z,1.73
2018-09-29T15:13:48.832Z,1.40
2018-09-29T15:16:18.074Z,1.53
2018-09-29T15:18:47.404Z,0.90
2018-09-29T15:21:16.719Z,0.97
2018-09-29T15:23:45.996Z,1.10
2018-09-29T15:26:15.604Z,1.63
2018-09-29T15:28:44.961Z,1.20
2018-09-29T15:31:14.220Z,1.03
2018-09-29T15:33:43.495Z,1.20
2018-09-29T15:36:13.415Z,1.20
2018-09-29T15:38:42.800Z,1.03
2018-09-29T15:41:12.000Z,1.20
2018-09-29T15:43:41.275Z,1.37
2018-09-29T15:46:10.869Z,1.00
2018-09-29T15:48:41.195Z,1.07
2018-09-29T15:51:10.414Z,0.90
2018-09-29T15:53:39.652Z,1.10
2018-09-29T15:56:10.919Z,1.33
2018-09-29T15:58:41.182Z,1.20
2018-09-29T16:01:10.961Z,1.43
2018-09-29T16:03:40.222Z,1.50
2018-09-29T16:06:09.771Z,1.27
2018-09-29T16:08:39.292Z,1.57
2018-09-29T16:11:08.653Z,1.17
2018-09-29T16:13:37.961Z,1.40
2018-09-29T16:16:07.420Z,1.30
2018-09-29T16:18:36.636Z,1.60
2018-09-29T16:21:06.441Z,1.30
2018-09-29T16:23:36.047Z,1.43
2018-09-29T16:26:05.304Z,1.73
2018-09-29T16:28:35.396Z,1.70
2018-09-29T16:31:05.283Z,1.30
2018-09-29T16:33:34.592Z,1.60
2018-09-29T16:36:03.799Z,1.73
2018-09-29T16:38:33.106Z,1.73
2018-09-29T16:41:02.447Z,1.67
2018-09-29T16:43:31.766Z,2.03
2018-09-29T16:46:01.071Z,1.63
2018-09-29T16:48:30.272Z,1.97
2018-09-29T16:50:59.813Z,1.93
2018-09-29T16:53:29.026Z,1.53
2018-09-29T16:55:58.556Z,1.70
2018-09-29T16:58:27.848Z,1.97
2018-09-29T17:00:57.076Z,1.40
2018-09-29T17:03:26.338Z,1.53
2018-09-29T17:05:55.731Z,1.80
2018-09-29T17:08:25.092Z,1.73
2018-09-29T17:10:54.527Z,1.83
2018-09-29T17:13:24.571Z,2.43
2018-09-29T17:15:53.955Z,1.93
2018-09-29T17:18:23.419Z,1.87
2018-09-29T17:20:53.324Z,1.90
2018-09-29T17:23:22.632Z,2.30
2018-09-29T17:25:52.040Z,2.77
2018-09-29T17:28:21.319Z,2.27
2018-09-29T17:30:50.676Z,2.07
2018-09-29T17:33:20.014Z,2.60
2018-09-29T17:35:49.489Z,2.07
2018-09-29T17:38:18.757Z,2.73
2018-09-29T17:40:48.032Z,2.57
2018-09-29T17:43:17.266Z,3.13
2018-09-29T17:45:47.248Z,2.73
2018-09-29T17:48:16.804Z,2.63
2018-09-29T17:50:46.795Z,2.50
2018-09-29T17:53:16.684Z,2.57
2018-09-29T17:55:46.111Z,2.80
2018-09-29T17:58:15.461Z,2.47
2018-09-29T18:00:46.190Z,2.30
2018-09-29T18:03:15.662Z,2.20
2018-09-29T18:05:44.986Z,2.30
2018-09-29T18:08:14.335Z,2.50
2018-09-29T18:10:45.542Z,3.00
2018-09-29T18:13:16.125Z,3.20
2018-09-29T18:15:45.390Z,2.90
2018-09-29T18:18:14.597Z,3.40
2018-09-29T18:20:44.785Z,3.53
2018-09-29T18:23:14.024Z,3.40
2018-09-29T18:25:43.282Z,3.50
2018-09-29T18:28:12.981Z,3.93
2018-09-29T18:30:42.539Z,5.13
2018-09-29T18:33:11.837Z,5.73
2018-09-29T18:35:41.538Z,5.30
2018-09-29T18:38:10.728Z,4.87
2018-09-29T18:40:40.834Z,3.83
2018-09-29T18:43:10.044Z,4.40
2018-09-29T18:45:40.037Z,4.20
2018-09-29T18:48:10.080Z,4.27
2018-09-29T18:50:39.453Z,3.80
2018-09-29T18:53:08.987Z,3.60
2018-09-29T18:55:38.339Z,4.07
2018-09-29T18:58:07.719Z,4.17
2018-09-29T19:00:37.139Z,4.07
2018-09-29T19:03:06.840Z,4.80
2018-09-29T19:05:36.137Z,4.63
2018-09-29T19:08:05.358Z,4.40
2018-09-29T19:10:34.664Z,4.03
2018-09-29T19:13:04.722Z,4.20
2018-09-29T19:15:34.189Z,5.07
2018-09-29T19:18:04.281Z,5.20
2018-09-29T19:20:34.061Z,5.00
2018-09-29T19:23:03.512Z,5.83
2018-09-29T19:25:32.792Z,5.90
2018-09-29T19:28:02.233Z,5.20
2018-09-29T19:30:31.630Z,4.70
2018-09-29T19:33:01.084Z,4.70
2018-09-29T19:35:30.969Z,4.60
2018-09-29T19:38:00.243Z,4.43
2018-09-29T19:40:29.537Z,4.20
2018-09-29T19:42:58.949Z,4.43
2018-09-29T19:45:28.200Z,4.23
2018-09-29T19:47:57.461Z,4.47
2018-09-29T19:50:26.756Z,4.50
2018-09-29T19:52:56.151Z,4.77
2018-09-29T19:55:25.430Z,4.83
2018-09-29T19:57:54.704Z,4.67
2018-09-29T20:00:23.979Z,4.77
2018-09-29T20:02:53.281Z,4.97
2018-09-29T20:05:22.617Z,4.67
2018-09-29T20:07:53.279Z,4.93
2018-09-29T20:10:22.610Z,5.27
2018-09-29T20:12:51.864Z,5.67
2018-09-29T20:15:21.100Z,5.30
2018-09-29T20:17:51.278Z,5.20
2018-09-29T20:20:20.500Z,4.90
2018-09-29T20:22:50.327Z,4.73
2018-09-29T20:25:19.589Z,4.93
2018-09-29T20:27:48.992Z,5.40
2018-09-29T20:30:18.339Z,5.50
2018-09-29T20:32:47.746Z,5.90
2018-09-29T20:35:17.831Z,5.80
2018-09-29T20:37:47.657Z,5.73
2018-09-29T20:40:16.896Z,5.50
2018-09-29T20:42:46.716Z,4.97
2018-09-29T20:45:16.061Z,5.47
2018-09-29T20:47:45.503Z,5.80
2018-09-29T20:50:14.773Z,5.70
2018-09-29T20:52:44.202Z,5.40
2018-09-29T20:55:14.052Z,5.40
2018-09-29T20:57:43.761Z,4.97
2018-09-29T21:00:13.109Z,5.97
2018-09-29T21:02:43.092Z,5.40
2018-09-29T21:05:12.414Z,5.33
2018-09-29T21:07:41.869Z,4.83
2018-09-29T21:10:11.240Z,5.03
2018-09-29T21:12:40.626Z,5.17
2018-09-29T21:15:09.925Z,5.20
2018-09-29T21:17:46.067Z,5.10
2018-09-29T21:20:15.369Z,5.20
2018-09-29T21:22:45.411Z,5.13
2018-09-29T21:25:14.755Z,5.00
2018-09-29T21:27:43.984Z,5.60
2018-09-29T21:30:13.805Z,5.50
2018-09-29T21:32:43.216Z,5.50
2018-09-29T21:35:12.503Z,5.60
2018-09-29T21:37:41.729Z,5.07
2018-09-29T21:40:10.950Z,5.57
2018-09-29T21:42:41.165Z,4.90
2018-09-29T21:45:10.430Z,5.80
2018-09-29T21:47:39.752Z,6.27
2018-09-29T21:50:09.016Z,4.73
2018-09-29T21:52:38.278Z,5.83
2018-09-29T21:55:07.641Z,5.67
2018-09-29T21:57:36.851Z,5.63
2018-09-29T22:00:06.356Z,5.00
2018-09-29T22:02:35.636Z,5.47
2018-09-29T22:05:05.027Z,5.20
2018-09-29T22:07:35.345Z,6.20
2018-09-29T22:10:05.788Z,5.30
2018-09-29T22:12:36.032Z,5.40
2018-09-29T22:15:05.595Z,4.97
2018-09-29T22:17:34.826Z,5.27
2018-09-29T22:20:04.780Z,5.40
2018-09-29T22:22:34.209Z,5.50
2018-09-29T22:25:03.663Z,5.77
2018-09-29T22:27:33.779Z,5.80
2018-09-29T22:30:03.232Z,5.43
2018-09-29T22:32:32.456Z,5.50
2018-09-29T22:35:01.956Z,5.30
2018-09-29T22:37:31.183Z,4.73
2018-09-29T22:40:01.094Z,4.67
2018-09-29T22:42:31.214Z,5.23
2018-09-29T22:45:00.537Z,5.47
2018-09-29T22:47:30.352Z,4.93
2018-09-29T22:49:59.592Z,5.70
2018-09-29T22:52:28.785Z,4.90
2018-09-29T22:54:58.640Z,5.13
2018-09-29T22:57:27.946Z,5.17
2018-09-29T22:59:57.229Z,5.07
2018-09-29T23:02:26.474Z,5.60
2018-09-29T23:04:55.932Z,5.07
2018-09-29T23:07:25.164Z,4.97
2018-09-29T23:09:54.972Z,5.33
2018-09-29T23:12:24.243Z,5.23
2018-09-29T23:14:53.474Z,5.10
2018-09-29T23:17:22.683Z,5.67
2018-09-29T23:19:52.532Z,5.17
2018-09-29T23:22:21.776Z,5.00
2018-09-29T23:24:51.139Z,4.50
2018-09-29T23:27:21.104Z,4.73
2018-09-29T23:29:50.337Z,4.53
2018-09-29T23:32:19.698Z,4.50
2018-09-29T23:34:48.920Z,4.33
2018-09-29T23:37:18.281Z,4.30
2018-09-29T23:39:47.584Z,4.47
2018-09-29T23:42:16.868Z,4.63
2018-09-29T23:44:46.196Z,4.27
2018-09-29T23:47:15.476Z,3.67
2018-09-29T23:49:44.787Z,5.17
2018-09-29T23:52:14.091Z,4.50
2018-09-29T23:54:43.585Z,4.47
2018-09-29T23:57:12.812Z,4.37
2018-09-29T23:59:42.020Z,4.40
